createdAt,value
2023-01-23T00:01:56.495Z,38.77
2023-01-23T00:04:26.346Z,35.03
2023-01-23T00:06:56.168Z,37.87
2023-01-23T00:09:25.951Z,29.40
2023-01-23T00:11:56.017Z,35.38
2023-01-23T00:14:25.806Z,34.05
2023-01-23T00:16:55.630Z,38.23
2023-01-23T00:19:25.736Z,39.53
2023-01-23T00:21:55.484Z,34.87
2023-01-23T00:24:25.207Z,39.43
2023-01-23T00:26:54.985Z,34.23
2023-01-23T00:29:24.947Z,30.17
2023-01-23T00:31:54.534Z,41.10
2023-01-23T00:34:24.494Z,41.30
2023-01-23T00:36:54.374Z,33.43
2023-01-23T00:39:25.670Z,36.43
2023-01-23T00:41:55.497Z,36.60
2023-01-23T00:44:26.434Z,39.33
2023-01-23T00:46:56.673Z,40.05
2023-01-23T00:49:27.029Z,33.50
2023-01-23T00:51:57.269Z,41.27
2023-01-23T00:54:28.820Z,39.57
2023-01-23T00:56:58.693Z,40.63
2023-01-23T00:59:28.471Z,41.27
2023-01-23T01:01:58.545Z,42.50
2023-01-23T01:04:28.662Z,41.97
2023-01-23T01:06:58.110Z,37.28
2023-01-23T01:09:28.078Z,36.63
2023-01-23T01:11:58.250Z,44.47
2023-01-23T01:14:27.772Z,47.63
2023-01-23T01:16:58.737Z,39.47
2023-01-23T01:19:29.369Z,37.23
2023-01-23T01:21:59.242Z,40.00
2023-01-23T01:24:29.212Z,45.20
2023-01-23T01:26:59.178Z,35.30
2023-01-23T01:29:29.448Z,38.90
2023-01-23T01:31:59.269Z,38.77
2023-01-23T01:34:29.991Z,43.47
2023-01-23T01:36:59.932Z,44.83
2023-01-23T01:39:29.716Z,36.40
2023-01-23T01:41:59.705Z,37.03
2023-01-23T01:44:31.663Z,37.87
2023-01-23T01:47:01.488Z,37.87
2023-01-23T01:49:35.299Z,45.50
2023-01-23T01:52:09.780Z,42.70
2023-01-23T01:54:42.767Z,37.90
2023-01-23T01:57:27.317Z,43.60
2023-01-23T02:00:06.058Z,37.60
2023-01-23T02:02:46.438Z,46.20
2023-01-23T02:05:26.363Z,41.45
2023-01-23T02:08:14.143Z,44.77
2023-01-23T02:10:45.937Z,46.20
2023-01-23T02:13:31.489Z,40.53
2023-01-23T02:16:03.990Z,49.47
2023-01-23T02:18:36.571Z,42.03
2023-01-23T02:21:09.049Z,45.10
2023-01-23T02:23:53.627Z,50.40
2023-01-23T02:26:42.581Z,46.02
2023-01-23T02:29:14.209Z,48.05
2023-01-23T02:31:46.154Z,41.70
2023-01-23T02:34:16.247Z,45.00
2023-01-23T02:36:49.243Z,47.57
2023-01-23T02:39:21.271Z,51.73
2023-01-23T02:41:54.286Z,43.03
2023-01-23T02:44:29.224Z,45.33
2023-01-23T02:47:04.078Z,44.93
2023-01-23T02:49:33.980Z,42.83
2023-01-23T02:52:07.159Z,45.93
2023-01-23T02:54:39.437Z,41.27
2023-01-23T02:57:09.836Z,50.70
2023-01-23T02:59:58.001Z,45.80
2023-01-23T03:02:28.087Z,44.87
2023-01-23T03:04:57.879Z,46.87
2023-01-23T03:07:29.433Z,46.63
2023-01-23T03:09:59.195Z,45.63
2023-01-23T03:12:28.853Z,51.80
2023-01-23T03:14:58.898Z,50.90
2023-01-23T03:17:29.100Z,46.77
2023-01-23T03:19:59.052Z,46.27
2023-01-23T03:22:29.004Z,44.00
2023-01-23T03:24:58.905Z,45.87
2023-01-23T03:27:28.949Z,50.07
2023-01-23T03:30:15.644Z,45.77
2023-01-23T03:32:46.602Z,48.93
2023-01-23T03:35:17.963Z,46.75
2023-01-23T03:37:49.519Z,48.43
2023-01-23T03:40:42.452Z,43.90
2023-01-23T03:43:13.183Z,47.80
2023-01-23T03:45:44.723Z,46.93
2023-01-23T03:48:14.605Z,49.97
2023-01-23T03:50:45.438Z,41.40
2023-01-23T03:53:15.693Z,45.90
2023-01-23T03:55:48.791Z,48.17
2023-01-23T03:58:18.961Z,48.58
2023-01-23T04:00:49.647Z,46.95
2023-01-23T04:03:19.795Z,52.05
2023-01-23T04:05:49.408Z,49.15
2023-01-23T04:08:19.248Z,42.30
2023-01-23T04:10:49.437Z,50.67
2023-01-23T04:13:19.301Z,46.63
2023-01-23T04:15:49.265Z,48.80
2023-01-23T04:18:19.325Z,44.90
2023-01-23T04:20:49.225Z,47.70
2023-01-23T04:23:19.199Z,48.90
2023-01-23T04:25:49.706Z,51.77
2023-01-23T04:28:20.009Z,49.00
2023-01-23T04:30:52.169Z,47.40
2023-01-23T04:33:23.763Z,50.50
2023-01-23T04:35:59.567Z,49.60
2023-01-23T04:38:31.216Z,48.23
2023-01-23T04:41:03.070Z,48.00
2023-01-23T04:43:33.672Z,49.40
2023-01-23T04:46:06.861Z,50.00
2023-01-23T04:48:54.919Z,51.48
2023-01-23T04:51:25.062Z,49.33
2023-01-23T04:53:57.498Z,53.27
2023-01-23T04:56:26.580Z,50.30
2023-01-23T04:58:56.838Z,52.83
2023-01-23T05:01:27.012Z,55.28
2023-01-23T05:03:58.912Z,55.53
2023-01-23T05:06:29.121Z,50.80
2023-01-23T05:08:59.420Z,50.23
2023-01-23T05:11:32.073Z,50.75
2023-01-23T05:14:01.996Z,43.83
2023-01-23T05:16:32.669Z,44.83
2023-01-23T05:19:12.752Z,49.43
2023-01-23T05:21:43.155Z,52.47
2023-01-23T05:24:14.793Z,52.23
2023-01-23T05:26:45.446Z,48.50
2023-01-23T05:29:15.903Z,43.73
2023-01-23T05:31:55.807Z,50.10
2023-01-23T05:34:42.298Z,51.33
2023-01-23T05:37:20.510Z,46.77
2023-01-23T05:39:52.318Z,48.63
2023-01-23T05:42:22.342Z,51.13
2023-01-23T05:45:09.316Z,46.47
2023-01-23T05:47:41.258Z,53.63
2023-01-23T05:50:17.859Z,47.62
2023-01-23T05:52:48.033Z,43.13
2023-01-23T05:55:18.070Z,49.00
2023-01-23T05:57:48.903Z,49.20
2023-01-23T06:00:23.375Z,54.73
2023-01-23T06:03:10.717Z,45.60
2023-01-23T06:05:51.565Z,50.47
2023-01-23T06:08:21.387Z,50.37
2023-01-23T06:10:52.684Z,58.23
2023-01-23T06:13:22.811Z,43.45
2023-01-23T06:15:52.734Z,49.50
2023-01-23T06:18:22.818Z,45.03
2023-01-23T06:20:55.640Z,43.97
2023-01-23T06:23:25.384Z,41.00
2023-01-23T06:25:54.924Z,50.25
2023-01-23T06:28:25.497Z,46.98
2023-01-23T06:30:55.699Z,48.20
2023-01-23T06:33:27.219Z,46.20
2023-01-23T06:36:02.023Z,39.60
2023-01-23T06:38:32.548Z,42.03
2023-01-23T06:41:03.148Z,40.03
2023-01-23T06:43:34.635Z,46.67
2023-01-23T06:46:11.590Z,45.07
2023-01-23T06:48:41.326Z,41.70
2023-01-23T06:51:12.038Z,45.03
2023-01-23T06:53:43.547Z,44.93
2023-01-23T06:56:14.027Z,42.65
2023-01-23T06:58:46.690Z,46.20
2023-01-23T07:01:21.530Z,42.77
2023-01-23T07:04:10.206Z,41.40
2023-01-23T07:06:41.023Z,46.05
2023-01-23T07:09:13.370Z,41.27
2023-01-23T07:11:45.102Z,46.03
2023-01-23T07:14:14.920Z,44.70
2023-01-23T07:16:45.097Z,47.27
2023-01-23T07:19:14.948Z,44.90
2023-01-23T07:21:45.045Z,45.77
2023-01-23T07:24:14.793Z,49.90
2023-01-23T07:26:44.657Z,45.60
2023-01-23T07:29:14.749Z,46.77
2023-01-23T07:31:44.698Z,45.80
2023-01-23T07:34:15.391Z,47.75
2023-01-23T07:36:45.335Z,45.33
2023-01-23T07:39:16.142Z,48.47
2023-01-23T07:41:46.593Z,53.60
2023-01-23T07:44:19.242Z,58.07
2023-01-23T07:46:50.164Z,46.53
2023-01-23T07:49:20.076Z,45.63
2023-01-23T07:54:21.630Z,48.15
2023-01-23T07:56:51.818Z,51.40
2023-01-23T07:59:21.889Z,42.58
2023-01-23T08:01:52.612Z,46.43
2023-01-23T08:04:22.521Z,47.20
2023-01-23T08:06:52.394Z,48.03
2023-01-23T08:09:22.309Z,46.37
2023-01-23T08:11:54.078Z,48.73
2023-01-23T08:14:23.696Z,50.17
2023-01-23T08:16:55.127Z,46.80
2023-01-23T08:19:27.853Z,47.00
2023-01-23T08:21:57.726Z,46.10
2023-01-23T08:24:27.296Z,46.65
2023-01-23T08:26:57.212Z,46.40
2023-01-23T08:29:27.023Z,43.60
2023-01-23T08:31:56.838Z,51.57
2023-01-23T08:34:26.918Z,50.90
2023-01-23T08:36:56.693Z,46.13
2023-01-23T08:39:26.262Z,42.20
2023-01-23T08:41:56.050Z,42.37
2023-01-23T08:44:25.637Z,39.83
2023-01-23T08:46:55.380Z,44.55
2023-01-23T08:49:25.425Z,47.30
2023-01-23T08:51:56.684Z,50.00
2023-01-23T08:54:26.777Z,45.78
2023-01-23T08:56:56.853Z,47.20
2023-01-23T08:59:26.783Z,44.03
2023-01-23T09:01:56.925Z,48.90
2023-01-23T09:04:26.821Z,47.33
2023-01-23T09:06:56.590Z,38.37
2023-01-23T09:09:26.778Z,42.08
2023-01-23T09:11:56.994Z,42.17
2023-01-23T09:14:26.492Z,43.90
2023-01-23T09:16:56.381Z,43.90
2023-01-23T09:19:26.366Z,45.57
2023-01-23T09:21:56.975Z,39.23
2023-01-23T09:24:26.512Z,50.30
2023-01-23T09:26:56.671Z,41.05
2023-01-23T09:29:26.740Z,43.08
2023-01-23T09:31:56.794Z,39.77
2023-01-23T09:34:26.776Z,40.03
2023-01-23T09:36:56.993Z,40.10
2023-01-23T09:39:26.925Z,37.33
2023-01-23T09:41:56.836Z,45.37
2023-01-23T09:44:38.402Z,40.27
2023-01-23T09:47:26.069Z,42.00
2023-01-23T09:50:02.054Z,37.70
2023-01-23T09:52:34.709Z,33.80
2023-01-23T09:58:05.789Z,38.92
2023-01-23T10:00:36.574Z,39.95
2023-01-23T10:03:12.749Z,36.33
2023-01-23T10:06:06.500Z,38.40
2023-01-23T10:08:39.344Z,42.83
2023-01-23T10:11:21.350Z,40.88
2023-01-23T10:14:12.329Z,44.77
2023-01-23T10:17:08.896Z,39.03
2023-01-23T10:19:56.747Z,40.05
2023-01-23T10:22:29.706Z,39.45
2023-01-23T10:25:01.709Z,38.55
2023-01-23T10:27:41.748Z,38.97
2023-01-23T10:30:26.838Z,44.23
2023-01-23T10:33:02.695Z,38.63
2023-01-23T10:38:32.142Z,37.45
2023-01-23T10:41:14.538Z,34.13
2023-01-23T10:43:47.768Z,36.77
2023-01-23T10:46:20.271Z,42.10
2023-01-23T10:48:55.349Z,34.90
2023-01-23T10:51:28.060Z,41.10
2023-01-23T10:54:30.353Z,36.87
2023-01-23T10:56:57.890Z,41.37
2023-01-23T10:59:30.934Z,33.87
2023-01-23T11:02:07.494Z,37.27
2023-01-23T11:07:09.699Z,40.40
2023-01-23T11:09:51.454Z,41.77
2023-01-23T11:12:29.957Z,38.78
2023-01-23T11:15:31.418Z,41.90
2023-01-23T11:18:02.604Z,39.57
2023-01-23T11:20:37.747Z,40.50
2023-01-23T11:23:13.511Z,39.60
2023-01-23T11:25:46.388Z,34.87
2023-01-23T11:28:37.107Z,37.90
2023-01-23T11:31:21.989Z,33.80
2023-01-23T11:34:06.743Z,36.27
2023-01-23T11:36:56.000Z,36.13
2023-01-23T11:39:51.027Z,38.30
2023-01-23T11:42:21.563Z,37.45
2023-01-23T11:44:51.570Z,33.23
2023-01-23T11:47:39.695Z,33.33
2023-01-23T11:50:49.885Z,43.70
2023-01-23T11:53:36.789Z,33.92
2023-01-23T11:56:11.186Z,31.87
2023-01-23T11:58:50.388Z,31.07
2023-01-23T12:02:02.538Z,29.80
2023-01-23T12:04:49.072Z,33.43
2023-01-23T12:07:22.825Z,30.17
2023-01-23T12:10:13.191Z,36.20
2023-01-23T12:13:10.055Z,28.93
2023-01-23T12:16:03.372Z,30.65
2023-01-23T12:18:44.995Z,28.43
2023-01-23T12:21:20.766Z,32.47
2023-01-23T12:24:02.376Z,28.38
2023-01-23T12:26:34.828Z,28.65
2023-01-23T12:29:22.546Z,27.98
2023-01-23T12:32:10.461Z,29.53
2023-01-23T12:34:55.217Z,29.20
2023-01-23T12:40:36.650Z,27.50
2023-01-23T12:43:26.375Z,30.20
2023-01-23T12:46:02.404Z,28.27
2023-01-23T12:48:35.189Z,27.35
2023-01-23T12:51:10.653Z,32.67
2023-01-23T12:53:42.661Z,30.00
2023-01-23T12:56:18.297Z,32.95
2023-01-23T12:59:10.634Z,28.30
2023-01-23T13:01:49.329Z,27.00
2023-01-23T13:04:39.892Z,28.00
2023-01-23T13:07:12.774Z,26.73
2023-01-23T13:09:54.212Z,25.07
2023-01-23T13:12:27.114Z,24.95
2023-01-23T13:15:38.716Z,30.77
2023-01-23T13:18:03.039Z,27.83
2023-01-23T13:20:53.492Z,28.47
2023-01-23T13:23:26.268Z,28.97
2023-01-23T13:26:15.614Z,26.47
2023-01-23T13:28:57.618Z,27.05
2023-01-23T13:31:40.512Z,26.27
2023-01-23T13:34:21.603Z,25.82
2023-01-23T13:36:53.174Z,26.85
2023-01-23T13:39:28.806Z,32.60
2023-01-23T13:42:19.315Z,26.70
2023-01-23T13:45:08.081Z,29.13
2023-01-23T13:47:57.043Z,27.67
2023-01-23T13:50:32.487Z,28.55
2023-01-23T13:53:34.659Z,27.23
2023-01-23T13:56:25.735Z,24.55
2023-01-23T13:58:56.281Z,27.25
2023-01-23T14:01:45.839Z,26.07
2023-01-23T14:04:45.008Z,28.62
2023-01-23T14:07:46.166Z,29.12
2023-01-23T14:10:31.977Z,23.62
2023-01-23T14:13:13.596Z,31.25
2023-01-23T14:16:06.655Z,26.25
2023-01-23T14:18:39.893Z,25.67
2023-01-23T14:21:23.729Z,25.77
2023-01-23T14:23:56.605Z,28.37
2023-01-23T14:26:28.984Z,26.12
2023-01-23T14:29:05.269Z,25.00
2023-01-23T14:31:38.163Z,30.73
2023-01-23T14:34:19.041Z,27.55
2023-01-23T14:37:09.253Z,27.80
2023-01-23T14:39:40.999Z,28.53
2023-01-23T14:42:26.385Z,26.32
2023-01-23T14:44:58.983Z,24.50
2023-01-23T14:47:35.267Z,27.23
2023-01-23T14:50:12.375Z,24.60
2023-01-23T14:52:42.315Z,27.80
2023-01-23T14:55:29.775Z,22.67
2023-01-23T14:58:00.853Z,23.27
2023-01-23T15:00:31.370Z,22.57
2023-01-23T15:03:01.400Z,23.87
2023-01-23T15:05:32.922Z,25.50
2023-01-23T15:08:08.368Z,22.57
2023-01-23T15:10:43.780Z,20.63
2023-01-23T15:13:29.202Z,22.53
2023-01-23T15:16:02.051Z,22.00
2023-01-23T15:18:36.623Z,24.97
2023-01-23T15:21:08.584Z,26.10
2023-01-23T15:23:41.306Z,26.15
2023-01-23T15:26:17.536Z,23.55
2023-01-23T15:28:53.938Z,22.35
2023-01-23T15:31:32.624Z,25.20
2023-01-23T15:34:17.370Z,25.00
2023-01-23T15:37:01.320Z,25.87
2023-01-23T15:39:42.520Z,24.33
2023-01-23T15:42:18.335Z,24.27
2023-01-23T15:44:48.287Z,25.02
2023-01-23T15:47:18.143Z,22.67
2023-01-23T15:49:47.910Z,21.40
2023-01-23T15:52:21.355Z,19.07
2023-01-23T15:54:54.396Z,21.57
2023-01-23T15:57:24.474Z,21.97
2023-01-23T15:59:54.237Z,19.70
2023-01-23T16:02:31.035Z,22.77
2023-01-23T16:04:56.744Z,19.63
2023-01-23T16:07:36.051Z,18.42
2023-01-23T16:10:10.006Z,19.87
2023-01-23T16:12:40.242Z,19.23
2023-01-23T16:15:18.288Z,20.17
2023-01-23T16:17:48.929Z,19.77
2023-01-23T16:20:23.518Z,17.05
2023-01-23T16:22:56.387Z,18.07
2023-01-23T16:25:43.689Z,19.33
2023-01-23T16:28:09.717Z,17.55
2023-01-23T16:30:39.918Z,20.82
2023-01-23T16:33:09.856Z,17.27
2023-01-23T16:35:40.468Z,19.83
2023-01-23T16:38:23.200Z,19.33
2023-01-23T16:40:54.233Z,18.33
2023-01-23T16:43:24.566Z,21.07
2023-01-23T16:45:56.475Z,18.27
2023-01-23T16:48:28.365Z,16.73
2023-01-23T16:51:10.420Z,16.73
2023-01-23T16:53:43.569Z,17.20
2023-01-23T16:56:22.206Z,17.53
2023-01-23T16:58:52.353Z,26.23
2023-01-23T17:01:24.364Z,19.77
2023-01-23T17:03:59.997Z,24.87
2023-01-23T17:06:29.741Z,32.80
2023-01-23T17:09:00.133Z,30.62
2023-01-23T17:11:34.107Z,21.45
2023-01-23T17:14:08.166Z,19.73
2023-01-23T17:16:38.109Z,20.33
2023-01-23T17:19:19.801Z,19.53
2023-01-23T17:21:50.375Z,20.17
2023-01-23T17:24:20.093Z,24.10
2023-01-23T17:26:50.028Z,29.17
2023-01-23T17:29:20.156Z,27.50
2023-01-23T17:31:50.677Z,51.37
2023-01-23T17:34:26.442Z,31.15
2023-01-23T17:36:58.020Z,26.23
2023-01-23T17:39:28.210Z,44.60
2023-01-23T17:41:58.012Z,26.00
2023-01-23T17:44:27.809Z,24.27
2023-01-23T17:46:57.460Z,21.35
2023-01-23T17:49:31.898Z,20.77
2023-01-23T17:52:02.760Z,25.92
2023-01-23T17:54:33.176Z,23.80
2023-01-23T17:57:03.102Z,22.27
2023-01-23T17:59:33.041Z,25.80
2023-01-23T18:02:03.340Z,24.23
2023-01-23T18:04:33.575Z,23.40
2023-01-23T18:07:03.121Z,21.65
2023-01-23T18:09:34.304Z,26.27
2023-01-23T18:12:06.316Z,58.00
2023-01-23T18:14:50.873Z,82.73
2023-01-23T18:17:32.196Z,32.70
2023-01-23T18:20:02.405Z,38.47
2023-01-23T18:25:22.503Z,45.40
2023-01-23T18:27:55.452Z,28.35
2023-01-23T18:30:39.302Z,28.77
2023-01-23T18:33:24.173Z,20.03
2023-01-23T18:36:23.834Z,20.47
2023-01-23T18:39:32.119Z,19.37
2023-01-23T18:42:16.634Z,23.00
2023-01-23T18:45:01.126Z,22.45
2023-01-23T18:47:31.228Z,25.40
2023-01-23T18:50:01.210Z,24.60
2023-01-23T18:52:34.039Z,29.10
2023-01-23T18:55:18.667Z,25.67
2023-01-23T18:57:51.812Z,26.75
2023-01-23T19:00:33.496Z,24.92
2023-01-23T19:03:15.257Z,24.43
2023-01-23T19:05:46.783Z,21.73
2023-01-23T19:08:26.663Z,20.50
2023-01-23T19:10:59.456Z,21.60
2023-01-23T19:13:40.570Z,25.77
2023-01-23T19:16:20.485Z,25.52
2023-01-23T19:19:10.713Z,24.67
2023-01-23T19:21:31.408Z,23.33
2023-01-23T19:24:08.159Z,22.10
2023-01-23T19:26:40.952Z,21.07
2023-01-23T19:29:21.651Z,22.37
2023-01-23T19:31:49.710Z,23.50
2023-01-23T19:34:16.789Z,22.37
2023-01-23T19:36:46.580Z,22.07
2023-01-23T19:39:16.735Z,23.47
2023-01-23T19:41:48.721Z,21.30
2023-01-23T19:44:20.524Z,23.47
2023-01-23T19:46:50.501Z,21.70
2023-01-23T19:49:20.313Z,22.43
2023-01-23T19:51:50.136Z,22.50
2023-01-23T19:54:22.230Z,23.57
2023-01-23T19:56:51.858Z,19.97
2023-01-23T19:59:21.748Z,21.10
2023-01-23T20:01:53.199Z,25.23
2023-01-23T20:04:24.712Z,26.60
2023-01-23T20:06:54.576Z,25.67
2023-01-23T20:09:24.327Z,22.53
2023-01-23T20:11:54.176Z,21.97
2023-01-23T20:14:25.007Z,22.97
2023-01-23T20:16:54.915Z,23.43
2023-01-23T20:19:25.121Z,23.57
2023-01-23T20:24:43.754Z,26.07
2023-01-23T20:27:13.635Z,21.87
2023-01-23T20:29:43.745Z,22.37
2023-01-23T20:32:13.471Z,22.80
2023-01-23T20:34:43.374Z,23.73
2023-01-23T20:37:13.197Z,24.50
2023-01-23T20:39:42.958Z,25.47
2023-01-23T20:42:12.497Z,27.37
2023-01-23T20:44:42.945Z,28.50
2023-01-23T20:47:13.068Z,25.75
2023-01-23T20:49:42.960Z,22.97
2023-01-23T20:52:29.963Z,24.67
2023-01-23T20:54:59.792Z,25.87
2023-01-23T20:57:31.230Z,27.17
2023-01-23T21:00:01.311Z,25.52
2023-01-23T21:02:32.761Z,26.20
2023-01-23T21:05:02.847Z,27.62
2023-01-23T21:07:32.963Z,28.20
2023-01-23T21:10:02.672Z,32.20
2023-01-23T21:12:32.665Z,27.27
2023-01-23T21:15:02.440Z,28.70
2023-01-23T21:17:32.183Z,27.13
2023-01-23T21:20:02.027Z,29.13
2023-01-23T21:22:32.135Z,29.10
2023-01-23T21:25:01.969Z,32.27
2023-01-23T21:27:31.899Z,29.43
2023-01-23T21:30:01.830Z,26.83
2023-01-23T21:32:31.727Z,27.80
2023-01-23T21:35:01.553Z,28.27
2023-01-23T21:37:31.418Z,29.03
2023-01-23T21:40:01.235Z,27.77
2023-01-23T21:42:31.070Z,28.90
2023-01-23T21:45:00.822Z,24.90
2023-01-23T21:47:30.718Z,27.63
2023-01-23T21:50:00.583Z,23.27
2023-01-23T21:52:30.353Z,23.93
2023-01-23T21:55:00.158Z,24.83
2023-01-23T21:57:30.010Z,25.87
2023-01-23T22:00:17.715Z,24.40
2023-01-23T22:02:47.839Z,22.55
2023-01-23T22:05:17.646Z,23.47
2023-01-23T22:07:50.732Z,28.40
2023-01-23T22:10:20.613Z,25.90
2023-01-23T22:12:50.170Z,24.60
2023-01-23T22:15:20.420Z,23.83
2023-01-23T22:17:50.785Z,25.27
2023-01-23T22:20:20.435Z,24.30
2023-01-23T22:22:50.513Z,26.42
2023-01-23T22:25:20.516Z,27.52
2023-01-23T22:27:50.427Z,23.20
2023-01-23T22:30:20.588Z,24.65
2023-01-23T22:32:50.394Z,25.23
2023-01-23T22:35:20.629Z,27.45
2023-01-23T22:37:50.524Z,23.80
2023-01-23T22:40:20.286Z,24.93
2023-01-23T22:42:50.053Z,25.67
2023-01-23T22:45:20.378Z,24.72
2023-01-23T22:47:50.337Z,26.20
2023-01-23T22:50:20.323Z,23.77
2023-01-23T22:52:50.215Z,25.53
2023-01-23T22:55:20.487Z,25.70
2023-01-23T22:57:55.179Z,24.70
2023-01-23T23:00:25.009Z,22.13
2023-01-23T23:02:54.982Z,24.70
2023-01-23T23:05:24.714Z,27.27
2023-01-23T23:07:54.493Z,26.43
2023-01-23T23:10:24.332Z,27.17
2023-01-23T23:12:54.181Z,23.33
2023-01-23T23:15:23.698Z,22.10
2023-01-23T23:17:53.668Z,27.77
2023-01-23T23:20:23.512Z,24.43
2023-01-23T23:22:53.369Z,24.83
2023-01-23T23:25:23.292Z,24.27
2023-01-23T23:27:53.407Z,27.23
2023-01-23T23:30:23.250Z,28.20
2023-01-23T23:32:53.165Z,25.10
2023-01-23T23:35:23.522Z,26.50
2023-01-23T23:37:53.309Z,23.80
2023-01-23T23:40:23.082Z,27.22
2023-01-23T23:42:53.154Z,24.00
2023-01-23T23:45:23.422Z,24.32
2023-01-23T23:47:55.005Z,25.97
2023-01-23T23:50:24.742Z,26.02
2023-01-23T23:52:55.069Z,26.42
2023-01-23T23:55:24.836Z,25.05
2023-01-23T23:57:54.747Z,24.67
